Archival Weather

Republic

Farmingdale, New York (KFRG)

Report from: Wednesday, February 14, 2024 3:53 AM EST
Current time: Friday, June 14, 2024 9:06 AM EDT

Current weather – Weather history – Daily summaries
Weather forecast

Temperature0.6°C (33.1°F)
Wind chill-3.9°C (24.9°F)
Dew point-6.1°C (21.0°F)
Winds 9 kts (4.6 m/s, 10.4 mph) West-Northwest (300°)
Wind gusts 19 kts (9.8 m/s, 21.9 mph)
Visibility10 mi. (16.1 km)
Clouds Sky clear
Altimeter29.85 in.Hg (1011 mB)
Relative humidity61 %
Density altitude-1,611 ft. (-491 m)
Sea-level pressure101.1 kPa (1011 mB, 29.85 in.Hg)
Remarks Fully automated report
Automated weather observing station without precipitation discriminator
Freezing rain sensor not operating
Pressure rising more slowly
Flight conditions Visual Meteorological Conditions
Raw dataKFRG 140853Z AUTO 30009G19KT 10SM CLR 01/M06 A2985 RMK AO1 SLP108 T00061061 51015 FZRANO
An error has occurred. This application may no longer respond until reloaded. Reload 🗙